createdAt,value
2023-02-23T00:00:32.450Z,99.59
2023-02-23T00:01:32.460Z,99.59
2023-02-23T00:02:32.460Z,99.59
2023-02-23T00:03:32.442Z,99.69
2023-02-23T00:04:32.406Z,99.69
2023-02-23T00:05:32.401Z,99.69
2023-02-23T00:06:32.446Z,99.69
2023-02-23T00:07:32.385Z,99.59
2023-02-23T00:08:33.919Z,99.59
2023-02-23T00:09:32.344Z,99.69
2023-02-23T00:10:32.323Z,99.69
2023-02-23T00:11:32.323Z,99.69
2023-02-23T00:12:32.328Z,99.69
2023-02-23T00:13:32.314Z,99.69
2023-02-23T00:14:32.300Z,99.79
2023-02-23T00:15:32.272Z,99.79
2023-02-23T00:16:32.327Z,99.79
2023-02-23T00:17:32.275Z,99.90
2023-02-23T00:18:32.242Z,99.90
2023-02-23T00:19:32.261Z,99.90
2023-02-23T00:20:32.239Z,99.99
2023-02-23T00:21:32.202Z,99.99
2023-02-23T00:22:32.242Z,99.90
2023-02-23T00:23:32.254Z,99.90
2023-02-23T00:24:32.184Z,99.90
2023-02-23T00:25:32.163Z,99.90
2023-02-23T00:26:32.156Z,99.99
2023-02-23T00:27:32.166Z,99.90
2023-02-23T00:28:32.132Z,99.90
2023-02-23T00:29:32.147Z,99.90
2023-02-23T00:30:32.177Z,99.90
2023-02-23T00:31:32.114Z,99.99
2023-02-23T00:32:32.169Z,99.99
2023-02-23T00:33:32.090Z,99.90
2023-02-23T00:34:32.091Z,99.90
2023-02-23T00:35:32.064Z,99.90
2023-02-23T00:36:32.043Z,99.90
2023-02-23T00:37:32.102Z,99.99
2023-02-23T00:38:32.014Z,99.99
2023-02-23T00:39:32.008Z,99.99
2023-02-23T00:40:31.990Z,99.99
2023-02-23T00:41:32.008Z,99.99
2023-02-23T00:42:32.004Z,99.99
2023-02-23T00:43:31.999Z,99.99
2023-02-23T00:44:31.958Z,99.99
2023-02-23T00:45:31.941Z,99.99
2023-02-23T00:46:31.938Z,99.99
2023-02-23T00:47:31.920Z,99.99
2023-02-23T00:48:31.936Z,99.99
2023-02-23T00:49:31.905Z,99.99
2023-02-23T00:50:31.885Z,99.99
2023-02-23T00:51:31.874Z,99.90
2023-02-23T00:52:31.887Z,99.79
2023-02-23T00:53:31.856Z,99.79
2023-02-23T00:54:31.829Z,99.90
2023-02-23T00:55:31.845Z,99.90
2023-02-23T00:56:31.819Z,99.90
2023-02-23T00:57:31.802Z,99.99
2023-02-23T00:58:31.830Z,99.99
2023-02-23T00:59:31.794Z,99.99
2023-02-23T01:00:31.793Z,99.99
2023-02-23T01:01:31.792Z,99.99
2023-02-23T01:02:31.814Z,99.99
2023-02-23T01:03:31.728Z,99.99
2023-02-23T01:04:31.749Z,99.99
2023-02-23T01:05:31.720Z,99.99
2023-02-23T01:06:31.697Z,99.99
2023-02-23T01:07:31.738Z,99.99
2023-02-23T01:08:31.667Z,99.99
2023-02-23T01:09:31.710Z,99.99
2023-02-23T01:10:31.647Z,99.99
2023-02-23T01:11:31.641Z,99.99
2023-02-23T01:12:31.634Z,99.99
2023-02-23T01:13:31.666Z,99.99
2023-02-23T01:14:31.611Z,99.99
2023-02-23T01:15:31.619Z,99.99
2023-02-23T01:16:31.579Z,99.99
2023-02-23T01:17:31.579Z,99.99
2023-02-23T01:18:31.568Z,99.99
2023-02-23T01:19:31.572Z,99.99
2023-02-23T01:20:31.539Z,99.99
2023-02-23T01:21:31.532Z,99.99
2023-02-23T01:22:31.543Z,99.99
2023-02-23T01:23:31.508Z,99.99
2023-02-23T01:24:31.487Z,99.99
2023-02-23T01:25:31.487Z,99.99
2023-02-23T01:26:31.458Z,99.99
2023-02-23T01:27:31.468Z,99.99
2023-02-23T01:28:31.454Z,99.99
2023-02-23T01:29:31.429Z,99.99
2023-02-23T01:30:31.469Z,99.99
2023-02-23T01:31:31.509Z,99.99
2023-02-23T01:32:31.407Z,99.99
2023-02-23T01:33:31.414Z,99.99
2023-02-23T01:34:31.425Z,99.99
2023-02-23T01:35:31.384Z,99.99
2023-02-23T01:36:31.370Z,99.99
2023-02-23T01:37:31.380Z,99.99
2023-02-23T01:38:31.336Z,99.99
2023-02-23T01:39:31.332Z,99.99
2023-02-23T01:40:31.339Z,99.99
2023-02-23T01:41:31.310Z,99.99
2023-02-23T01:42:31.282Z,99.99
2023-02-23T01:43:31.295Z,99.99
2023-02-23T01:44:31.307Z,99.99
2023-02-23T01:45:31.254Z,99.99
2023-02-23T01:46:31.264Z,99.99
2023-02-23T01:47:31.244Z,99.99
2023-02-23T01:48:32.647Z,99.99
2023-02-23T01:49:31.205Z,99.99
2023-02-23T01:50:32.189Z,99.99
2023-02-23T01:51:31.196Z,99.99
2023-02-23T01:52:31.164Z,99.99
2023-02-23T01:53:31.167Z,99.99
2023-02-23T01:54:31.176Z,99.99
2023-02-23T01:55:31.139Z,99.99
2023-02-23T01:56:31.125Z,99.99
2023-02-23T01:57:31.111Z,99.99
2023-02-23T01:58:31.116Z,99.99
2023-02-23T01:59:31.126Z,99.99
2023-02-23T02:00:31.066Z,99.99
2023-02-23T02:01:31.091Z,99.99
2023-02-23T02:02:31.046Z,99.99
2023-02-23T02:03:31.050Z,99.99
2023-02-23T02:04:31.057Z,99.99
2023-02-23T02:05:31.026Z,99.99
2023-02-23T02:06:31.016Z,99.99
2023-02-23T02:07:31.007Z,99.99
2023-02-23T02:08:30.984Z,99.99
2023-02-23T02:09:30.998Z,99.99
2023-02-23T02:10:30.966Z,99.99
2023-02-23T02:11:30.964Z,99.99
2023-02-23T02:12:31.893Z,99.99
2023-02-23T02:13:30.938Z,99.99
2023-02-23T02:14:30.956Z,99.99
2023-02-23T02:15:30.910Z,99.99
2023-02-23T02:16:30.936Z,99.99
2023-02-23T02:17:30.915Z,99.99
2023-02-23T02:18:30.870Z,99.99
2023-02-23T02:19:30.899Z,99.99
2023-02-23T02:20:30.848Z,99.99
2023-02-23T02:21:30.841Z,99.99
2023-02-23T02:22:30.839Z,99.99
2023-02-23T02:23:30.823Z,99.99
2023-02-23T02:24:31.267Z,99.99
2023-02-23T02:25:30.816Z,99.99
2023-02-23T02:26:30.803Z,99.99
2023-02-23T02:27:30.777Z,99.99
2023-02-23T02:28:30.787Z,99.99
2023-02-23T02:29:30.743Z,99.99
2023-02-23T02:30:30.777Z,99.99
2023-02-23T02:31:30.823Z,99.99
2023-02-23T02:32:30.719Z,99.99
2023-02-23T02:33:30.716Z,99.99
2023-02-23T02:34:30.699Z,99.99
2023-02-23T02:35:30.718Z,99.99
2023-02-23T02:36:30.687Z,99.99
2023-02-23T02:37:30.676Z,99.99
2023-02-23T02:38:30.648Z,99.99
2023-02-23T02:39:30.660Z,99.99
2023-02-23T02:40:30.653Z,99.99
2023-02-23T02:41:30.645Z,99.99
2023-02-23T02:42:30.594Z,99.99
2023-02-23T02:43:30.596Z,99.99
2023-02-23T02:44:30.584Z,99.99
2023-02-23T02:45:30.607Z,99.99
2023-02-23T02:46:31.371Z,99.99
2023-02-23T02:47:30.574Z,99.99
2023-02-23T02:48:30.539Z,99.99
2023-02-23T02:49:30.597Z,99.99
2023-02-23T02:50:30.524Z,99.99
2023-02-23T02:51:32.090Z,99.99
2023-02-23T02:52:30.501Z,99.99
2023-02-23T02:53:30.499Z,99.99
2023-02-23T02:54:30.514Z,99.99
2023-02-23T02:55:31.434Z,99.99
2023-02-23T02:56:30.463Z,99.99
2023-02-23T02:57:31.301Z,99.99
2023-02-23T02:58:30.447Z,99.99
2023-02-23T02:59:30.445Z,99.99
2023-02-23T03:00:30.617Z,99.99
2023-02-23T03:01:30.711Z,99.99
2023-02-23T03:02:30.404Z,99.99
2023-02-23T03:03:30.389Z,99.99
2023-02-23T03:04:30.380Z,99.99
2023-02-23T03:05:30.703Z,99.99
2023-02-23T03:06:30.739Z,99.99
2023-02-23T03:07:30.369Z,99.99
2023-02-23T03:08:31.775Z,99.99
2023-02-23T03:09:30.329Z,99.99
2023-02-23T03:10:30.319Z,99.99
2023-02-23T03:11:31.760Z,99.99
2023-02-23T03:12:30.325Z,99.99
2023-02-23T03:13:30.813Z,99.99
2023-02-23T03:14:30.264Z,99.99
2023-02-23T03:15:30.257Z,99.99
2023-02-23T03:16:30.275Z,99.99
2023-02-23T03:17:30.482Z,99.99
2023-02-23T03:18:30.231Z,99.99
2023-02-23T03:19:30.223Z,99.99
2023-02-23T03:20:31.641Z,99.99
2023-02-23T03:21:30.551Z,99.99
2023-02-23T03:22:30.192Z,99.99
2023-02-23T03:23:30.204Z,99.99
2023-02-23T03:24:30.174Z,99.99
2023-02-23T03:25:30.154Z,99.99
2023-02-23T03:26:30.166Z,99.99
2023-02-23T03:27:30.109Z,99.99
2023-02-23T03:28:30.219Z,99.99
2023-02-23T03:29:31.564Z,99.99
2023-02-23T03:30:30.124Z,99.99
2023-02-23T03:31:31.567Z,99.99
2023-02-23T03:32:30.202Z,99.99
2023-02-23T03:33:30.049Z,99.99
2023-02-23T03:34:30.049Z,99.99
2023-02-23T03:35:30.217Z,99.99
2023-02-23T03:36:30.012Z,99.99
2023-02-23T03:37:31.476Z,99.99
2023-02-23T03:38:29.997Z,99.99
2023-02-23T03:39:29.978Z,99.99
2023-02-23T03:40:29.983Z,99.99
2023-02-23T03:41:29.980Z,99.99
2023-02-23T03:42:31.474Z,99.99
2023-02-23T03:43:29.933Z,99.99
2023-02-23T03:44:29.922Z,99.99
2023-02-23T03:45:29.954Z,99.99
2023-02-23T03:46:29.908Z,99.99
2023-02-23T03:47:29.925Z,99.99
2023-02-23T03:48:29.889Z,99.99
2023-02-23T03:49:29.960Z,99.99
2023-02-23T03:50:29.854Z,99.99
2023-02-23T03:51:29.852Z,99.99
2023-02-23T03:52:29.879Z,99.99
2023-02-23T03:53:29.835Z,99.99
2023-02-23T03:54:29.801Z,99.99
2023-02-23T03:55:29.787Z,99.99
2023-02-23T03:56:29.817Z,99.99
2023-02-23T03:57:29.812Z,99.99
2023-02-23T03:58:29.758Z,99.99
2023-02-23T03:59:29.768Z,99.99
2023-02-23T04:00:29.757Z,99.99
2023-02-23T04:01:29.722Z,99.99
2023-02-23T04:02:35.977Z,99.99
2023-02-23T04:03:29.747Z,99.99
2023-02-23T04:04:29.684Z,99.99
2023-02-23T04:05:29.709Z,99.99
2023-02-23T04:06:29.669Z,99.99
2023-02-23T04:07:29.672Z,99.99
2023-02-23T04:08:29.651Z,99.99
2023-02-23T04:09:29.654Z,99.99
2023-02-23T04:10:29.641Z,99.99
2023-02-23T04:11:29.646Z,99.99
2023-02-23T04:12:29.601Z,99.99
2023-02-23T04:13:29.595Z,99.99
2023-02-23T04:14:29.570Z,99.99
2023-02-23T04:15:29.590Z,99.99
2023-02-23T04:16:29.926Z,99.99
2023-02-23T04:17:30.330Z,99.99
2023-02-23T04:18:29.531Z,99.99
2023-02-23T04:19:30.974Z,99.99
2023-02-23T04:20:29.529Z,99.99
2023-02-23T04:21:29.713Z,99.99
2023-02-23T04:22:30.456Z,99.99
2023-02-23T04:23:30.456Z,99.99
2023-02-23T04:24:29.556Z,99.99
2023-02-23T04:25:29.450Z,99.99
2023-02-23T04:26:29.453Z,99.99
2023-02-23T04:27:29.430Z,99.99
2023-02-23T04:28:30.922Z,99.99
2023-02-23T04:29:29.405Z,99.99
2023-02-23T04:30:29.468Z,99.99
2023-02-23T04:31:29.444Z,99.99
2023-02-23T04:32:29.433Z,99.99
2023-02-23T04:33:30.911Z,99.99
2023-02-23T04:34:29.377Z,99.99
2023-02-23T04:35:29.327Z,99.99
2023-02-23T04:36:29.357Z,99.99
2023-02-23T04:37:30.301Z,99.99
2023-02-23T04:38:29.298Z,99.99
2023-02-23T04:39:29.300Z,99.99
2023-02-23T04:40:29.288Z,99.99
2023-02-23T04:41:29.322Z,99.99
2023-02-23T04:42:29.352Z,99.99
2023-02-23T04:43:29.259Z,99.99
2023-02-23T04:44:29.246Z,99.99
2023-02-23T04:45:29.269Z,99.99
2023-02-23T04:46:29.254Z,99.99
2023-02-23T04:47:29.251Z,99.99
2023-02-23T04:48:29.192Z,99.99
2023-02-23T04:49:29.194Z,99.99
2023-02-23T04:50:30.190Z,99.99
2023-02-23T04:51:29.173Z,99.99
2023-02-23T04:52:29.146Z,99.99
2023-02-23T04:53:29.301Z,99.99
2023-02-23T04:54:29.142Z,99.99
2023-02-23T04:55:29.356Z,99.99
2023-02-23T04:56:29.120Z,99.99
2023-02-23T04:57:29.107Z,99.99
2023-02-23T04:58:29.078Z,99.99
2023-02-23T04:59:29.096Z,99.99
2023-02-23T05:00:29.066Z,99.99
2023-02-23T05:01:29.075Z,99.99
2023-02-23T05:02:29.030Z,99.99
2023-02-23T05:03:29.076Z,99.99
2023-02-23T05:04:29.037Z,99.99
2023-02-23T05:05:29.024Z,99.99
2023-02-23T05:06:28.991Z,99.99
2023-02-23T05:07:28.980Z,99.99
2023-02-23T05:08:28.976Z,99.99
2023-02-23T05:09:29.398Z,99.99
2023-02-23T05:10:28.960Z,99.99
2023-02-23T05:11:28.944Z,99.99
2023-02-23T05:12:28.912Z,99.99
2023-02-23T05:13:28.965Z,99.99
2023-02-23T05:14:28.932Z,99.99
2023-02-23T05:15:28.916Z,99.99
2023-02-23T05:16:28.961Z,99.99
2023-02-23T05:17:29.033Z,99.99
2023-02-23T05:18:28.878Z,99.99
2023-02-23T05:19:28.858Z,99.99
2023-02-23T05:20:28.858Z,99.99
2023-02-23T05:21:28.831Z,99.99
2023-02-23T05:22:28.800Z,99.99
2023-02-23T05:23:28.800Z,99.99
2023-02-23T05:24:28.804Z,99.99
2023-02-23T05:25:29.743Z,99.99
2023-02-23T05:26:28.796Z,99.99
2023-02-23T05:27:29.708Z,99.99
2023-02-23T05:28:28.775Z,99.99
2023-02-23T05:29:28.738Z,99.99
2023-02-23T05:30:29.691Z,99.99
2023-02-23T05:31:28.926Z,99.99
2023-02-23T05:32:28.788Z,99.99
2023-02-23T05:33:28.707Z,99.99
2023-02-23T05:34:29.733Z,99.99
2023-02-23T05:35:29.623Z,99.99
2023-02-23T05:36:28.655Z,99.99
2023-02-23T05:37:28.654Z,99.99
2023-02-23T05:38:28.624Z,99.99
2023-02-23T05:39:30.608Z,99.99
2023-02-23T05:40:28.625Z,99.99
2023-02-23T05:41:28.594Z,99.99
2023-02-23T05:42:28.585Z,99.99
2023-02-23T05:43:28.591Z,99.99
2023-02-23T05:44:28.556Z,99.99
2023-02-23T05:45:28.542Z,99.99
2023-02-23T05:46:28.571Z,99.99
2023-02-23T05:47:28.530Z,99.99
2023-02-23T05:48:28.499Z,99.99
2023-02-23T05:49:28.500Z,99.99
2023-02-23T05:50:28.484Z,99.99
2023-02-23T05:51:28.502Z,99.99
2023-02-23T05:52:28.470Z,99.99
2023-02-23T05:53:28.454Z,99.99
2023-02-23T05:54:28.441Z,99.99
2023-02-23T05:55:28.433Z,99.99
2023-02-23T05:56:28.471Z,99.99
2023-02-23T05:57:29.884Z,99.99
2023-02-23T05:58:28.619Z,99.99
2023-02-23T05:59:29.298Z,99.99
2023-02-23T06:00:29.826Z,99.99
2023-02-23T06:01:29.215Z,99.99
2023-02-23T06:02:28.872Z,99.99
2023-02-23T06:03:29.823Z,99.99
2023-02-23T06:04:28.329Z,99.99
2023-02-23T06:05:28.324Z,99.99
2023-02-23T06:06:28.326Z,99.99
2023-02-23T06:07:28.327Z,99.99
2023-02-23T06:08:28.301Z,99.99
2023-02-23T06:09:28.287Z,99.99
2023-02-23T06:10:28.337Z,99.99
2023-02-23T06:11:28.252Z,99.99
2023-02-23T06:12:28.364Z,99.99
2023-02-23T06:13:28.227Z,99.99
2023-02-23T06:14:28.242Z,99.99
2023-02-23T06:15:29.959Z,99.99
2023-02-23T06:16:28.322Z,99.99
2023-02-23T06:17:28.415Z,99.99
2023-02-23T06:18:28.176Z,99.99
2023-02-23T06:19:28.198Z,99.99
2023-02-23T06:20:28.148Z,99.99
2023-02-23T06:21:28.155Z,99.99
2023-02-23T06:22:28.159Z,99.99
2023-02-23T06:23:28.187Z,99.99
2023-02-23T06:24:28.122Z,99.99
2023-02-23T06:25:29.106Z,99.99
2023-02-23T06:26:28.089Z,99.99
2023-02-23T06:27:28.078Z,99.99
2023-02-23T06:28:28.064Z,99.99
2023-02-23T06:29:28.077Z,99.99
2023-02-23T06:30:28.066Z,99.99
2023-02-23T06:31:28.331Z,99.99
2023-02-23T06:32:28.075Z,99.99
2023-02-23T06:33:28.017Z,99.99
2023-02-23T06:34:28.003Z,99.99
2023-02-23T06:35:27.990Z,99.99
2023-02-23T06:36:28.021Z,99.99
2023-02-23T06:37:27.968Z,99.99
2023-02-23T06:38:27.996Z,99.99
2023-02-23T06:39:27.942Z,99.99
2023-02-23T06:40:27.935Z,99.99
2023-02-23T06:41:27.958Z,99.99
2023-02-23T06:42:27.929Z,99.99
2023-02-23T06:43:28.852Z,99.99
2023-02-23T06:44:27.883Z,99.99
2023-02-23T06:45:27.877Z,99.99
2023-02-23T06:46:27.907Z,99.99
2023-02-23T06:47:27.862Z,99.99
2023-02-23T06:48:27.869Z,99.99
2023-02-23T06:49:27.843Z,99.99
2023-02-23T06:50:27.853Z,99.99
2023-02-23T06:51:27.821Z,99.99
2023-02-23T06:52:27.828Z,99.99
2023-02-23T06:53:27.784Z,99.99
2023-02-23T06:54:27.778Z,99.99
2023-02-23T06:55:27.751Z,99.99
2023-02-23T06:56:27.841Z,99.99
2023-02-23T06:57:27.766Z,99.99
2023-02-23T06:58:27.763Z,99.99
2023-02-23T06:59:27.718Z,99.99
2023-02-23T07:00:27.823Z,99.99
2023-02-23T07:01:28.720Z,99.99
2023-02-23T07:02:27.680Z,99.99
2023-02-23T07:03:27.824Z,99.99
2023-02-23T07:04:27.657Z,99.99
2023-02-23T07:05:27.689Z,99.99
2023-02-23T07:06:27.633Z,99.99
2023-02-23T07:07:27.621Z,99.99
2023-02-23T07:08:27.614Z,99.99
2023-02-23T07:09:29.191Z,99.99
2023-02-23T07:10:27.604Z,99.99
2023-02-23T07:11:27.591Z,99.99
2023-02-23T07:12:27.562Z,99.99
2023-02-23T07:13:27.815Z,99.99
2023-02-23T07:14:27.533Z,99.99
2023-02-23T07:15:27.537Z,99.99
2023-02-23T07:16:27.537Z,99.99
2023-02-23T07:17:27.646Z,99.99
2023-02-23T07:18:27.503Z,99.99
2023-02-23T07:19:27.509Z,99.99
2023-02-23T07:20:27.482Z,99.99
2023-02-23T07:21:27.472Z,99.99
2023-02-23T07:22:27.468Z,99.99
2023-02-23T07:23:27.452Z,99.99
2023-02-23T07:24:27.436Z,99.99
2023-02-23T07:25:27.801Z,99.99
2023-02-23T07:26:27.402Z,99.99
2023-02-23T07:27:27.423Z,99.99
2023-02-23T07:28:27.401Z,99.99
2023-02-23T07:29:27.362Z,99.99
2023-02-23T07:30:27.395Z,99.99
2023-02-23T07:31:27.398Z,99.99
2023-02-23T07:32:27.663Z,99.99
2023-02-23T07:33:27.367Z,99.99
2023-02-23T07:34:27.315Z,99.99
2023-02-23T07:35:27.299Z,99.99
2023-02-23T07:36:27.328Z,99.99
2023-02-23T07:37:28.085Z,99.99
2023-02-23T07:38:27.274Z,99.99
2023-02-23T07:39:28.089Z,99.99
2023-02-23T07:40:27.256Z,99.99
2023-02-23T07:41:27.257Z,99.99
2023-02-23T07:42:28.734Z,99.99
2023-02-23T07:43:27.232Z,99.99
2023-02-23T07:44:27.235Z,99.99
2023-02-23T07:45:27.225Z,99.99
2023-02-23T07:46:27.185Z,99.99
2023-02-23T07:47:27.226Z,99.99
2023-02-23T07:48:27.184Z,99.99
2023-02-23T07:49:27.153Z,99.99
2023-02-23T07:50:27.137Z,99.99
2023-02-23T07:51:27.137Z,99.99
2023-02-23T07:52:27.159Z,99.99
2023-02-23T07:53:27.453Z,99.99
2023-02-23T07:54:27.097Z,99.99
2023-02-23T07:55:28.540Z,99.99
2023-02-23T07:56:27.147Z,99.99
2023-02-23T07:57:27.059Z,99.99
2023-02-23T07:58:27.054Z,99.99
2023-02-23T07:59:27.059Z,99.99
2023-02-23T08:00:27.058Z,99.99
2023-02-23T08:01:27.043Z,99.99
2023-02-23T08:02:27.045Z,99.99
2023-02-23T08:03:27.009Z,99.99
2023-02-23T08:04:28.004Z,99.99
2023-02-23T08:05:26.970Z,99.99
2023-02-23T08:06:26.983Z,99.99
2023-02-23T08:07:26.972Z,99.99
2023-02-23T08:08:26.948Z,99.99
2023-02-23T08:09:26.979Z,99.99
2023-02-23T08:10:26.972Z,99.99
2023-02-23T08:11:26.912Z,99.99
2023-02-23T08:12:26.944Z,99.99
2023-02-23T08:13:27.701Z,99.99
2023-02-23T08:14:26.885Z,99.99
2023-02-23T08:15:26.875Z,99.99
2023-02-23T08:16:26.913Z,99.99
2023-02-23T08:17:26.847Z,99.99
2023-02-23T08:18:26.896Z,99.99
2023-02-23T08:19:27.848Z,99.99
2023-02-23T08:20:26.870Z,99.99
2023-02-23T08:21:26.806Z,99.99
2023-02-23T08:22:26.807Z,99.99
2023-02-23T08:23:26.816Z,99.99
2023-02-23T08:24:26.794Z,99.99
2023-02-23T08:25:26.779Z,99.99
2023-02-23T08:26:27.694Z,99.99
2023-02-23T08:27:26.726Z,99.99
2023-02-23T08:28:26.728Z,99.99
2023-02-23T08:29:26.736Z,99.99
2023-02-23T08:30:26.903Z,99.99
2023-02-23T08:31:26.936Z,99.99
2023-02-23T08:32:26.908Z,99.99
2023-02-23T08:33:26.755Z,99.99
2023-02-23T08:34:26.689Z,99.99
2023-02-23T08:35:26.697Z,99.99
2023-02-23T08:36:26.660Z,99.99
2023-02-23T08:37:26.669Z,99.99
2023-02-23T08:38:26.678Z,99.99
2023-02-23T08:39:26.596Z,99.99
2023-02-23T08:40:26.589Z,99.99
2023-02-23T08:41:26.575Z,99.99
2023-02-23T08:42:26.569Z,99.99
2023-02-23T08:43:26.653Z,99.99
2023-02-23T08:44:26.547Z,99.99
2023-02-23T08:45:26.572Z,99.89
2023-02-23T08:46:26.553Z,99.89
2023-02-23T08:47:26.520Z,99.89
2023-02-23T08:48:26.504Z,99.89
2023-02-23T08:49:26.493Z,99.89
2023-02-23T08:50:27.481Z,99.89
2023-02-23T08:51:26.469Z,99.89
2023-02-23T08:52:26.460Z,99.79
2023-02-23T08:53:26.439Z,99.79
2023-02-23T08:54:26.556Z,99.68
2023-02-23T08:55:26.410Z,99.58
2023-02-23T08:56:26.413Z,99.48
2023-02-23T08:57:26.414Z,99.48
2023-02-23T08:58:26.376Z,99.38
2023-02-23T08:59:27.819Z,99.27
2023-02-23T09:00:26.393Z,99.27
2023-02-23T09:01:26.368Z,99.27
2023-02-23T09:02:26.328Z,99.17
2023-02-23T09:03:26.427Z,99.17
2023-02-23T09:04:26.309Z,99.07
2023-02-23T09:05:26.383Z,99.07
2023-02-23T09:06:26.417Z,99.07
2023-02-23T09:07:26.354Z,99.07
2023-02-23T09:08:26.258Z,99.07
2023-02-23T09:09:26.820Z,99.07
2023-02-23T09:10:26.251Z,98.96
2023-02-23T09:11:26.232Z,98.96
2023-02-23T09:12:26.227Z,98.86
2023-02-23T09:13:26.221Z,98.86
2023-02-23T09:14:27.239Z,98.86
2023-02-23T09:15:26.238Z,98.76
2023-02-23T09:16:26.196Z,98.76
2023-02-23T09:17:26.202Z,98.66
2023-02-23T09:18:26.154Z,98.66
2023-02-23T09:19:26.180Z,98.76
2023-02-23T09:20:26.120Z,98.76
2023-02-23T09:21:26.102Z,98.76
2023-02-23T09:22:26.107Z,98.76
2023-02-23T09:23:26.080Z,98.76
2023-02-23T09:24:26.083Z,98.76
2023-02-23T09:25:26.073Z,98.66
2023-02-23T09:26:26.055Z,98.55
2023-02-23T09:27:26.056Z,98.55
2023-02-23T09:28:26.034Z,98.55
2023-02-23T09:29:26.008Z,98.55
2023-02-23T09:30:26.017Z,98.55
2023-02-23T09:31:26.040Z,98.55
2023-02-23T09:32:26.072Z,98.55
2023-02-23T09:33:25.964Z,98.51
2023-02-23T09:34:25.955Z,98.51
2023-02-23T09:35:25.955Z,98.51
2023-02-23T09:36:25.942Z,98.61
2023-02-23T09:37:25.980Z,98.61
2023-02-23T09:38:25.916Z,98.61
2023-02-23T09:39:37.384Z,98.61
2023-02-23T09:40:26.927Z,98.61
2023-02-23T09:41:25.883Z,98.61
2023-02-23T09:42:25.877Z,98.61
2023-02-23T09:43:25.892Z,98.61
2023-02-23T09:44:25.846Z,98.61
2023-02-23T09:45:25.852Z,98.51
2023-02-23T09:46:25.846Z,98.51
2023-02-23T09:47:25.816Z,98.51
2023-02-23T09:48:25.801Z,98.51
2023-02-23T09:49:25.819Z,98.51
2023-02-23T09:50:26.877Z,98.41
2023-02-23T09:51:25.769Z,98.30
2023-02-23T09:52:26.250Z,98.20
2023-02-23T09:53:25.744Z,98.10
2023-02-23T09:54:25.732Z,97.99
2023-02-23T09:55:26.868Z,97.99
2023-02-23T09:56:25.713Z,97.89
2023-02-23T09:57:25.725Z,97.83
2023-02-23T09:58:25.744Z,97.73
2023-02-23T09:59:25.713Z,97.73
2023-02-23T10:00:26.433Z,97.73
2023-02-23T10:01:25.703Z,97.83
2023-02-23T10:02:25.669Z,97.73
2023-02-23T10:03:25.628Z,97.83
2023-02-23T10:04:25.658Z,97.73
2023-02-23T10:05:25.608Z,97.63
2023-02-23T10:06:25.636Z,97.53
2023-02-23T10:07:25.596Z,97.53
2023-02-23T10:08:25.598Z,97.53
2023-02-23T10:09:25.897Z,97.42
2023-02-23T10:10:25.628Z,97.42
2023-02-23T10:11:25.572Z,97.42
2023-02-23T10:12:25.549Z,97.42
2023-02-23T10:13:25.520Z,97.42
2023-02-23T10:14:25.553Z,97.42
2023-02-23T10:15:25.514Z,97.32
2023-02-23T10:16:25.500Z,97.32
2023-02-23T10:17:26.488Z,97.32
2023-02-23T10:18:35.937Z,97.22
2023-02-23T10:19:26.447Z,97.22
2023-02-23T10:20:25.483Z,97.22
2023-02-23T10:21:25.505Z,97.22
2023-02-23T10:22:25.433Z,97.22
2023-02-23T10:23:25.433Z,97.12
2023-02-23T10:24:25.426Z,96.91
2023-02-23T10:25:25.400Z,96.81
2023-02-23T10:26:26.865Z,96.70
2023-02-23T10:27:25.369Z,96.70
2023-02-23T10:28:25.372Z,96.60
2023-02-23T10:29:25.365Z,96.60
2023-02-23T10:30:25.340Z,96.60
2023-02-23T10:31:26.967Z,96.40
2023-02-23T10:32:25.505Z,96.40
2023-02-23T10:33:25.300Z,96.30
2023-02-23T10:34:25.518Z,96.09
2023-02-23T10:35:25.419Z,95.98
2023-02-23T10:36:26.386Z,95.89
2023-02-23T10:37:25.728Z,95.89
2023-02-23T10:38:25.378Z,95.89
2023-02-23T10:39:25.356Z,95.98
2023-02-23T10:40:25.351Z,95.98
2023-02-23T10:41:25.596Z,95.98
2023-02-23T10:42:25.251Z,95.89
2023-02-23T10:43:25.715Z,95.89
2023-02-23T10:44:25.435Z,95.89
2023-02-23T10:45:25.711Z,95.78
2023-02-23T10:46:25.224Z,95.68
2023-02-23T10:47:25.333Z,95.68
2023-02-23T10:48:25.621Z,95.57
2023-02-23T10:49:26.444Z,95.47
2023-02-23T10:50:25.282Z,95.37
2023-02-23T10:51:25.406Z,95.37
2023-02-23T10:52:25.158Z,95.27
2023-02-23T10:53:25.218Z,95.37
2023-02-23T10:54:25.173Z,95.37
2023-02-23T10:55:25.038Z,95.37
2023-02-23T10:56:25.151Z,95.43
2023-02-23T10:57:25.047Z,95.43
2023-02-23T10:58:25.500Z,95.53
2023-02-23T10:59:25.256Z,95.53
2023-02-23T11:00:25.281Z,95.49
2023-02-23T11:01:25.295Z,95.49
2023-02-23T11:02:25.713Z,95.49
2023-02-23T11:03:25.430Z,95.49
2023-02-23T11:04:25.235Z,95.39
2023-02-23T11:05:24.962Z,95.39
2023-02-23T11:06:25.395Z,95.18
2023-02-23T11:07:25.382Z,95.07
2023-02-23T11:08:25.148Z,94.98
2023-02-23T11:09:36.970Z,94.98
2023-02-23T11:10:26.151Z,94.98
2023-02-23T11:11:25.193Z,94.98
2023-02-23T11:12:25.373Z,94.93
2023-02-23T11:13:25.147Z,94.93
2023-02-23T11:14:25.285Z,94.98
2023-02-23T11:15:35.223Z,94.77
2023-02-23T11:16:25.928Z,94.67
2023-02-23T11:17:26.064Z,94.56
2023-02-23T11:18:24.856Z,94.36
2023-02-23T11:19:25.098Z,94.26
2023-02-23T11:20:24.767Z,94.15
2023-02-23T11:21:24.754Z,94.15
2023-02-23T11:22:26.772Z,93.95
2023-02-23T11:23:24.746Z,93.95
2023-02-23T11:24:24.747Z,93.95
2023-02-23T11:25:24.702Z,93.85
2023-02-23T11:26:25.170Z,93.79
2023-02-23T11:27:24.705Z,93.59
2023-02-23T11:28:24.730Z,93.68
2023-02-23T11:29:24.709Z,93.79
2023-02-23T11:30:24.838Z,93.79
2023-02-23T11:31:24.669Z,93.89
2023-02-23T11:32:24.740Z,93.89
2023-02-23T11:33:24.619Z,93.99
2023-02-23T11:34:24.655Z,93.99
2023-02-23T11:35:24.670Z,93.99
2023-02-23T11:36:25.097Z,93.99
2023-02-23T11:37:24.606Z,93.89
2023-02-23T11:38:26.032Z,93.99
2023-02-23T11:39:24.589Z,94.10
2023-02-23T11:40:24.568Z,94.15
2023-02-23T11:41:24.542Z,94.26
2023-02-23T11:42:24.548Z,94.26
2023-02-23T11:43:24.510Z,94.15
2023-02-23T11:44:24.500Z,93.95
2023-02-23T11:45:24.511Z,93.74
2023-02-23T11:46:24.732Z,93.68
2023-02-23T11:47:24.540Z,93.68
2023-02-23T11:48:24.456Z,93.59
2023-02-23T11:49:24.444Z,93.59
2023-02-23T11:50:24.764Z,93.48
2023-02-23T11:51:25.380Z,93.64
2023-02-23T11:52:24.407Z,93.74
2023-02-23T11:53:26.164Z,93.74
2023-02-23T11:54:24.452Z,93.64
2023-02-23T11:55:24.372Z,93.54
2023-02-23T11:56:24.395Z,93.33
2023-02-23T11:57:24.418Z,93.13
2023-02-23T11:58:24.600Z,93.02
2023-02-23T11:59:25.797Z,93.02
2023-02-23T12:00:24.331Z,92.93
2023-02-23T12:01:24.317Z,92.86
2023-02-23T12:02:24.299Z,92.86
2023-02-23T12:03:24.339Z,92.82
2023-02-23T12:04:24.287Z,92.72
2023-02-23T12:05:24.958Z,92.72
2023-02-23T12:06:24.263Z,92.61
2023-02-23T12:07:24.316Z,92.55
2023-02-23T12:08:25.756Z,92.46
2023-02-23T12:09:24.229Z,92.55
2023-02-23T12:10:24.226Z,92.55
2023-02-23T12:11:24.241Z,92.55
2023-02-23T12:12:24.221Z,92.66
2023-02-23T12:13:24.186Z,92.66
2023-02-23T12:14:24.162Z,92.66
2023-02-23T12:15:24.154Z,92.76
2023-02-23T12:16:24.217Z,92.76
2023-02-23T12:17:24.198Z,92.76
2023-02-23T12:18:25.575Z,92.76
2023-02-23T12:19:24.113Z,92.86
2023-02-23T12:20:24.095Z,92.76
2023-02-23T12:21:24.093Z,92.76
2023-02-23T12:22:24.096Z,92.86
2023-02-23T12:23:24.050Z,92.86
2023-02-23T12:24:24.096Z,92.86
2023-02-23T12:25:24.028Z,92.86
2023-02-23T12:26:24.026Z,92.86
2023-02-23T12:27:24.029Z,92.86
2023-02-23T12:28:24.023Z,92.55
2023-02-23T12:29:24.039Z,92.35
2023-02-23T12:30:24.020Z,92.25
2023-02-23T12:31:25.428Z,92.14
2023-02-23T12:32:24.134Z,92.14
2023-02-23T12:33:23.984Z,92.25
2023-02-23T12:34:23.946Z,92.25
2023-02-23T12:35:23.949Z,92.35
2023-02-23T12:36:23.932Z,92.51
2023-02-23T12:37:23.925Z,92.51
2023-02-23T12:38:23.901Z,92.51
2023-02-23T12:39:23.915Z,92.51
2023-02-23T12:40:24.348Z,92.51
2023-02-23T12:41:23.867Z,92.41
2023-02-23T12:42:23.877Z,92.41
2023-02-23T12:43:23.883Z,92.41
2023-02-23T12:44:24.831Z,92.31
2023-02-23T12:45:23.812Z,91.90
2023-02-23T12:46:25.283Z,91.69
2023-02-23T12:47:23.815Z,91.49
2023-02-23T12:48:23.775Z,91.38
2023-02-23T12:49:26.301Z,91.28
2023-02-23T12:50:23.773Z,91.33
2023-02-23T12:51:23.732Z,91.33
2023-02-23T12:52:23.745Z,91.33